Skip Navigation Links
Home and Info
Weather Forecast
Mountsorrel Weather
Climate Reports
Fun Stuff
Storm Chasing Pictures
Weather Tools
Me Only!
Stormchaser Mountsorrel Leicester current Weather StormChaser Mountsorrel Leicester current Weather


1 October 2014 Climate report for Mountsorrel.

 

Mountsorrel Weather Climate values are an adverage reading taken during the hour before the one displayed.

The bottom value is the Mean or Total of all the values during the day.


TimeAir TempGround TempDew PointRH%RainSun MinutesWind RunWind HiWind Dir BarometerWxWxTxt
Oct 1 2014 9:00PM 15.5 14.4 12.5 82 --- --- 6 11 NWWind direction 1025.5 Few Clouds Few Clouds
Oct 1 2014 8:00PM 16.1 15.0 13.1 82 --- --- 8 12 NWWind direction 1024.8 Mostly Clouds Mostly Clouds
Oct 1 2014 7:00PM 17.5 16.3 13.0 74 --- 38 6 10 NWWind direction 1024.0 Overcast Light Rain Overcast Light Rain
Oct 1 2014 6:00PM 18.7 19.1 12.5 67 --- 38 2 6 WWind direction 1023.2 Mostly Clouds Mostly Clouds
Oct 1 2014 5:00PM 18.6 21.5 12.5 67 --- 6 5 10 WNWWind direction 1022.9 Half Clouds Half Clouds
Oct 1 2014 4:00PM 18.8 22.3 11.8 63 --- --- 6 12 WNWWind direction 1022.5 Half Clouds Half Clouds
Oct 1 2014 3:00PM 19.0 24.2 11.1 60 --- --- 6 10 WNWWind direction 1022.2 Mostly Clouds Mostly Clouds
Oct 1 2014 2:00PM 18.8 22.2 10.9 59 --- 19 8 12 WWind direction 1021.9 Mostly Clouds Mostly Clouds
Oct 1 2014 1:00PM 18.6 19.9 10.9 60 --- 8 9 15 WWind direction 1021.9 Mostly Clouds Mostly Clouds
Oct 1 2014 12:00PM 17.9 18.1 10.7 62 --- 3 9 15 WWind direction 1021.5 Half Clouds Half Clouds
Oct 1 2014 11:00AM 16.9 14.2 10.7 66 --- --- 8 13 WWind direction 1021.3
Oct 1 2014 10:00AM 14.8 12.0 10.6 75 --- --- 7 13 SWWind direction 1020.9
Oct 1 2014 9:00AM 13.4 10.9 10.3 81 --- --- 5 8 SSWWind direction 1020.5
Oct 1 2014 8:00AM 12.7 8.3 9.9 82 --- --- 3 7 SSWWind direction 1020.2
Oct 1 2014 7:00AM 13.5 8.5 10.1 79 --- --- 3 6 SWWind direction 1019.8
Oct 1 2014 6:00AM 14.1 8.8 10.4 78 --- --- 1 6 WSWWind direction 1019.6
Oct 1 2014 5:00AM 15.3 11.8 11.7 78 --- --- 7 14 WWind direction 1019.1 Mostly Clouds Mostly Clouds
Oct 1 2014 4:00AM 16.0 14.2 13.7 86 --- --- 6 11 SWWind direction 1018.9 Mostly Clouds Mostly Clouds
Oct 1 2014 3:00AM 15.8 14.1 13.3 85 --- --- 6 8 SSWWind direction 1019.2 Overcast Overcast
Oct 1 2014 2:00AM 15.5 12.2 12.9 84 --- --- 7 10 SSWWind direction 1019.2 Mostly Clouds Mostly Clouds
Oct 1 2014 1:00AM 16.0 13.7 13.0 82 --- --- 9 13 SSWWind direction 1019.2 Half Clouds Half Clouds
Totals 16.4 15.3 11.7 73 0.0 01:52 127    1021.3   








The Mountsorrel Weather Station is located in Mountsorrel which is just South of Loughborough and just North of Leicester in Leicestershire.
It is maintained by Stormchaser Stuart Robinson whose passion is for all type of weather but especially the more severe types of weather such as Hurricanes, Typhoon and Tornadoes.